sensor_id;sensor_type;location;lat;lon;timestamp;pressure;altitude;pressure_sealevel;temperature;humidity
20119;BME280;10220;42.716;23.306;2023-06-22T00:01:04;95641.88;;;20.73;100.00
20119;BME280;10220;42.716;23.306;2023-06-22T00:03:29;95635.44;;;20.91;100.00
20119;BME280;10220;42.716;23.306;2023-06-22T00:05:54;95638.22;;;20.74;100.00
20119;BME280;10220;42.716;23.306;2023-06-22T00:08:21;95637.88;;;20.66;100.00
20119;BME280;10220;42.716;23.306;2023-06-22T00:10:47;95640.97;;;20.58;100.00
20119;BME280;10220;42.716;23.306;2023-06-22T00:13:13;95631.66;;;20.14;100.00
20119;BME280;10220;42.716;23.306;2023-06-22T00:15:40;95634.19;;;20.04;100.00
20119;BME280;10220;42.716;23.306;2023-06-22T00:18:07;95618.34;;;20.00;100.00
20119;BME280;10220;42.716;23.306;2023-06-22T00:20:33;95623.38;;;20.01;100.00
20119;BME280;10220;42.716;23.306;2023-06-22T00:23:03;95619.16;;;20.00;100.00
20119;BME280;10220;42.716;23.306;2023-06-22T00:25:36;95619.69;;;20.33;100.00
20119;BME280;10220;42.716;23.306;2023-06-22T00:28:03;95609.63;;;19.94;100.00
20119;BME280;10220;42.716;23.306;2023-06-22T00:30:29;95579.78;;;19.10;100.00
20119;BME280;10220;42.716;23.306;2023-06-22T00:32:55;95593.88;;;19.46;100.00
20119;BME280;10220;42.716;23.306;2023-06-22T00:35:20;95614.69;;;20.01;100.00
20119;BME280;10220;42.716;23.306;2023-06-22T00:37:46;95586.31;;;19.81;100.00
20119;BME280;10220;42.716;23.306;2023-06-22T00:40:11;95608.34;;;19.97;100.00
20119;BME280;10220;42.716;23.306;2023-06-22T00:42:38;95569.72;;;19.76;100.00
20119;BME280;10220;42.716;23.306;2023-06-22T00:45:07;95613.53;;;19.92;100.00
20119;BME280;10220;42.716;23.306;2023-06-22T00:47:36;95604.41;;;19.73;100.00
20119;BME280;10220;42.716;23.306;2023-06-22T00:50:03;95605.56;;;19.34;100.00
20119;BME280;10220;42.716;23.306;2023-06-22T00:52:33;95607.56;;;19.48;100.00
20119;BME280;10220;42.716;23.306;2023-06-22T00:55:02;95596.19;;;19.91;100.00
20119;BME280;10220;42.716;23.306;2023-06-22T00:57:28;95620.06;;;19.89;100.00
20119;BME280;10220;42.716;23.306;2023-06-22T00:59:53;95617.41;;;20.10;100.00
20119;BME280;10220;42.716;23.306;2023-06-22T01:02:19;95631.59;;;20.09;100.00
20119;BME280;10220;42.716;23.306;2023-06-22T01:04:45;95618.03;;;20.22;100.00
20119;BME280;10220;42.716;23.306;2023-06-22T01:07:29;95639.41;;;20.26;100.00
20119;BME280;10220;42.716;23.306;2023-06-22T01:10:05;95628.00;;;20.20;100.00
20119;BME280;10220;42.716;23.306;2023-06-22T01:12:38;95624.69;;;20.03;100.00
20119;BME280;10220;42.716;23.306;2023-06-22T01:15:11;95617.75;;;19.66;100.00
20119;BME280;10220;42.716;23.306;2023-06-22T01:17:40;95623.56;;;19.47;100.00
20119;BME280;10220;42.716;23.306;2023-06-22T01:20:09;95618.22;;;19.16;100.00
20119;BME280;10220;42.716;23.306;2023-06-22T01:25:36;95617.94;;;18.96;100.00
20119;BME280;10220;42.716;23.306;2023-06-22T01:28:45;95630.41;;;19.27;100.00
20119;BME280;10220;42.716;23.306;2023-06-22T01:31:14;95631.03;;;19.55;100.00
20119;BME280;10220;42.716;23.306;2023-06-22T01:33:43;95648.09;;;18.93;100.00
20119;BME280;10220;42.716;23.306;2023-06-22T01:36:09;95640.13;;;18.51;100.00
20119;BME280;10220;42.716;23.306;2023-06-22T01:38:36;95639.44;;;18.77;100.00
20119;BME280;10220;42.716;23.306;2023-06-22T01:41:03;95649.75;;;19.16;100.00
20119;BME280;10220;42.716;23.306;2023-06-22T01:43:29;95642.06;;;19.78;100.00
20119;BME280;10220;42.716;23.306;2023-06-22T01:45:56;95642.19;;;19.88;100.00
20119;BME280;10220;42.716;23.306;2023-06-22T01:48:22;95643.34;;;19.76;100.00
20119;BME280;10220;42.716;23.306;2023-06-22T01:50:48;95647.81;;;19.75;100.00
20119;BME280;10220;42.716;23.306;2023-06-22T01:53:14;95662.25;;;19.94;100.00
20119;BME280;10220;42.716;23.306;2023-06-22T01:55:39;95632.22;;;19.90;100.00
20119;BME280;10220;42.716;23.306;2023-06-22T01:58:05;95651.94;;;20.19;100.00
20119;BME280;10220;42.716;23.306;2023-06-22T02:00:33;95666.41;;;19.90;100.00
20119;BME280;10220;42.716;23.306;2023-06-22T02:03:05;95666.38;;;19.43;100.00
20119;BME280;10220;42.716;23.306;2023-06-22T02:05:36;95641.75;;;19.75;100.00
20119;BME280;10220;42.716;23.306;2023-06-22T02:08:24;95673.81;;;19.72;100.00
20119;BME280;10220;42.716;23.306;2023-06-22T02:10:51;95672.66;;;19.63;100.00
20119;BME280;10220;42.716;23.306;2023-06-22T02:13:18;95664.69;;;19.58;100.00
20119;BME280;10220;42.716;23.306;2023-06-22T02:15:45;95662.50;;;18.91;100.00
20119;BME280;10220;42.716;23.306;2023-06-22T02:18:10;95656.16;;;18.87;100.00
20119;BME280;10220;42.716;23.306;2023-06-22T02:20:38;95619.28;;;18.61;100.00
20119;BME280;10220;42.716;23.306;2023-06-22T02:23:05;95647.56;;;18.75;100.00
20119;BME280;10220;42.716;23.306;2023-06-22T02:25:31;95651.72;;;18.55;100.00
20119;BME280;10220;42.716;23.306;2023-06-22T02:27:57;95654.88;;;18.57;100.00
20119;BME280;10220;42.716;23.306;2023-06-22T02:30:22;95649.19;;;18.43;100.00
20119;BME280;10220;42.716;23.306;2023-06-22T02:32:48;95649.78;;;18.83;100.00
20119;BME280;10220;42.716;23.306;2023-06-22T02:35:13;95632.50;;;19.25;100.00
20119;BME280;10220;42.716;23.306;2023-06-22T02:37:39;95651.09;;;19.40;100.00
20119;BME280;10220;42.716;23.306;2023-06-22T02:40:08;95651.00;;;19.35;100.00
20119;BME280;10220;42.716;23.306;2023-06-22T02:42:37;95643.25;;;18.85;100.00
20119;BME280;10220;42.716;23.306;2023-06-22T02:45:03;95644.41;;;18.94;100.00
20119;BME280;10220;42.716;23.306;2023-06-22T02:47:28;95659.88;;;19.29;100.00
20119;BME280;10220;42.716;23.306;2023-06-22T02:49:54;95658.56;;;19.10;100.00
20119;BME280;10220;42.716;23.306;2023-06-22T02:52:19;95666.81;;;18.64;100.00
20119;BME280;10220;42.716;23.306;2023-06-22T02:54:45;95655.88;;;18.51;100.00
20119;BME280;10220;42.716;23.306;2023-06-22T02:57:11;95645.34;;;18.34;100.00
20119;BME280;10220;42.716;23.306;2023-06-22T02:59:39;95654.88;;;18.73;100.00
20119;BME280;10220;42.716;23.306;2023-06-22T03:02:06;95653.31;;;19.10;100.00
20119;BME280;10220;42.716;23.306;2023-06-22T03:04:32;95657.88;;;18.98;100.00
20119;BME280;10220;42.716;23.306;2023-06-22T03:06:57;95653.94;;;18.30;100.00
20119;BME280;10220;42.716;23.306;2023-06-22T03:09:26;95653.22;;;18.18;100.00
20119;BME280;10220;42.716;23.306;2023-06-22T03:11:53;95661.28;;;18.44;100.00
20119;BME280;10220;42.716;23.306;2023-06-22T03:14:18;95669.19;;;18.66;100.00
20119;BME280;10220;42.716;23.306;2023-06-22T03:16:44;95676.34;;;18.86;100.00
20119;BME280;10220;42.716;23.306;2023-06-22T03:19:09;95678.63;;;18.99;100.00
20119;BME280;10220;42.716;23.306;2023-06-22T03:21:37;95683.16;;;18.66;100.00
20119;BME280;10220;42.716;23.306;2023-06-22T03:24:04;95685.22;;;19.02;100.00
20119;BME280;10220;42.716;23.306;2023-06-22T03:26:29;95666.59;;;18.33;100.00
20119;BME280;10220;42.716;23.306;2023-06-22T03:28:55;95675.50;;;18.65;100.00
20119;BME280;10220;42.716;23.306;2023-06-22T03:31:21;95691.47;;;18.63;100.00
20119;BME280;10220;42.716;23.306;2023-06-22T03:33:47;95681.06;;;18.68;100.00
20119;BME280;10220;42.716;23.306;2023-06-22T03:36:14;95686.78;;;18.65;100.00
20119;BME280;10220;42.716;23.306;2023-06-22T03:38:43;95700.31;;;18.90;100.00
20119;BME280;10220;42.716;23.306;2023-06-22T03:41:08;95696.81;;;18.84;100.00
20119;BME280;10220;42.716;23.306;2023-06-22T03:43:34;95695.47;;;18.49;100.00
20119;BME280;10220;42.716;23.306;2023-06-22T03:45:59;95691.78;;;19.16;100.00
20119;BME280;10220;42.716;23.306;2023-06-22T03:48:24;95684.31;;;19.08;100.00
20119;BME280;10220;42.716;23.306;2023-06-22T03:50:50;95714.56;;;19.48;100.00
20119;BME280;10220;42.716;23.306;2023-06-22T03:53:15;95722.13;;;19.44;100.00
20119;BME280;10220;42.716;23.306;2023-06-22T03:55:48;95720.09;;;19.14;100.00
20119;BME280;10220;42.716;23.306;2023-06-22T03:58:14;95709.53;;;18.76;100.00
20119;BME280;10220;42.716;23.306;2023-06-22T04:00:39;95705.47;;;18.85;100.00
20119;BME280;10220;42.716;23.306;2023-06-22T04:03:05;95697.91;;;19.64;100.00
20119;BME280;10220;42.716;23.306;2023-06-22T04:05:32;95721.63;;;20.11;100.00
20119;BME280;10220;42.716;23.306;2023-06-22T04:07:58;95721.97;;;19.35;100.00
20119;BME280;10220;42.716;23.306;2023-06-22T04:10:23;95692.13;;;18.54;100.00
20119;BME280;10220;42.716;23.306;2023-06-22T04:12:49;95695.38;;;18.77;100.00
20119;BME280;10220;42.716;23.306;2023-06-22T04:15:14;95707.47;;;18.62;100.00
20119;BME280;10220;42.716;23.306;2023-06-22T04:17:39;95686.47;;;18.62;100.00
20119;BME280;10220;42.716;23.306;2023-06-22T04:20:07;95680.56;;;18.87;100.00
20119;BME280;10220;42.716;23.306;2023-06-22T04:22:32;95678.50;;;19.06;100.00
20119;BME280;10220;42.716;23.306;2023-06-22T04:24:58;95674.66;;;19.35;100.00
20119;BME280;10220;42.716;23.306;2023-06-22T04:27:23;95687.59;;;19.36;100.00
20119;BME280;10220;42.716;23.306;2023-06-22T04:29:49;95683.06;;;19.53;100.00
20119;BME280;10220;42.716;23.306;2023-06-22T04:32:18;95687.28;;;19.75;100.00
20119;BME280;10220;42.716;23.306;2023-06-22T04:34:43;95693.94;;;19.61;100.00
20119;BME280;10220;42.716;23.306;2023-06-22T04:37:09;95691.13;;;19.46;100.00
20119;BME280;10220;42.716;23.306;2023-06-22T04:39:34;95698.88;;;20.27;100.00
20119;BME280;10220;42.716;23.306;2023-06-22T04:42:00;95691.28;;;20.04;100.00
20119;BME280;10220;42.716;23.306;2023-06-22T04:44:26;95696.59;;;20.35;100.00
20119;BME280;10220;42.716;23.306;2023-06-22T04:46:55;95701.13;;;20.13;100.00
20119;BME280;10220;42.716;23.306;2023-06-22T04:49:25;95701.88;;;20.09;100.00
20119;BME280;10220;42.716;23.306;2023-06-22T04:51:59;95705.66;;;20.18;100.00
20119;BME280;10220;42.716;23.306;2023-06-22T04:54:24;95707.91;;;20.09;100.00
20119;BME280;10220;42.716;23.306;2023-06-22T04:56:50;95701.63;;;20.10;100.00
20119;BME280;10220;42.716;23.306;2023-06-22T04:59:24;95716.22;;;20.23;100.00
20119;BME280;10220;42.716;23.306;2023-06-22T05:02:00;95701.75;;;20.25;100.00
20119;BME280;10220;42.716;23.306;2023-06-22T05:04:27;95707.03;;;21.24;100.00
20119;BME280;10220;42.716;23.306;2023-06-22T05:06:59;95717.09;;;21.27;100.00
20119;BME280;10220;42.716;23.306;2023-06-22T05:09:25;95722.31;;;21.63;100.00
20119;BME280;10220;42.716;23.306;2023-06-22T05:11:51;95714.63;;;21.52;100.00
20119;BME280;10220;42.716;23.306;2023-06-22T05:14:17;95719.44;;;22.45;100.00
20119;BME280;10220;42.716;23.306;2023-06-22T05:16:44;95709.91;;;22.69;100.00
20119;BME280;10220;42.716;23.306;2023-06-22T05:19:10;95726.66;;;23.97;100.00
20119;BME280;10220;42.716;23.306;2023-06-22T05:21:35;95719.97;;;24.10;100.00
20119;BME280;10220;42.716;23.306;2023-06-22T05:24:01;95725.09;;;23.81;100.00
20119;BME280;10220;42.716;23.306;2023-06-22T05:26:29;95718.91;;;23.28;100.00
20119;BME280;10220;42.716;23.306;2023-06-22T05:28:55;95723.72;;;23.99;100.00
20119;BME280;10220;42.716;23.306;2023-06-22T05:31:21;95737.41;;;23.38;100.00
20119;BME280;10220;42.716;23.306;2023-06-22T05:33:47;95740.06;;;23.28;100.00
20119;BME280;10220;42.716;23.306;2023-06-22T05:36:13;95750.44;;;24.60;100.00
20119;BME280;10220;42.716;23.306;2023-06-22T05:38:40;95749.22;;;24.81;100.00
20119;BME280;10220;42.716;23.306;2023-06-22T05:41:05;95751.44;;;24.16;100.00
20119;BME280;10220;42.716;23.306;2023-06-22T05:43:31;95746.41;;;25.34;100.00
20119;BME280;10220;42.716;23.306;2023-06-22T05:45:57;95747.50;;;26.08;94.48
20119;BME280;10220;42.716;23.306;2023-06-22T05:48:22;95737.22;;;25.50;95.61
20119;BME280;10220;42.716;23.306;2023-06-22T05:50:48;95736.72;;;26.41;87.91
20119;BME280;10220;42.716;23.306;2023-06-22T05:53:13;95754.25;;;26.61;87.41
20119;BME280;10220;42.716;23.306;2023-06-22T05:55:39;95751.41;;;26.15;88.26
20119;BME280;10220;42.716;23.306;2023-06-22T05:58:04;95752.69;;;26.41;91.63
20119;BME280;10220;42.716;23.306;2023-06-22T06:00:30;95754.59;;;26.36;87.59
20119;BME280;10220;42.716;23.306;2023-06-22T06:02:56;95747.03;;;26.24;93.98
20119;BME280;10220;42.716;23.306;2023-06-22T06:05:22;95749.84;;;26.51;87.47
20119;BME280;10220;42.716;23.306;2023-06-22T06:07:49;95731.78;;;25.65;91.69
20119;BME280;10220;42.716;23.306;2023-06-22T06:10:14;95736.56;;;25.63;90.41
20119;BME280;10220;42.716;23.306;2023-06-22T06:12:39;95752.19;;;25.41;92.44
20119;BME280;10220;42.716;23.306;2023-06-22T06:15:05;95727.91;;;24.96;96.47
20119;BME280;10220;42.716;23.306;2023-06-22T06:17:31;95740.13;;;25.53;96.48
20119;BME280;10220;42.716;23.306;2023-06-22T06:19:56;95745.41;;;26.05;90.44
20119;BME280;10220;42.716;23.306;2023-06-22T06:22:22;95733.97;;;26.04;91.37
20119;BME280;10220;42.716;23.306;2023-06-22T06:24:49;95735.91;;;26.59;85.67
20119;BME280;10220;42.716;23.306;2023-06-22T06:27:14;95737.47;;;26.23;91.65
20119;BME280;10220;42.716;23.306;2023-06-22T06:29:40;95747.59;;;25.75;92.32
20119;BME280;10220;42.716;23.306;2023-06-22T06:32:05;95725.88;;;26.14;86.62
20119;BME280;10220;42.716;23.306;2023-06-22T06:34:31;95736.00;;;25.89;89.55
20119;BME280;10220;42.716;23.306;2023-06-22T06:36:56;95719.56;;;25.64;90.87
20119;BME280;10220;42.716;23.306;2023-06-22T06:39:22;95717.22;;;25.34;97.09
20119;BME280;10220;42.716;23.306;2023-06-22T06:41:47;95738.44;;;25.62;94.41
20119;BME280;10220;42.716;23.306;2023-06-22T06:44:12;95717.66;;;25.93;92.87
20119;BME280;10220;42.716;23.306;2023-06-22T06:46:38;95720.13;;;26.07;94.65
20119;BME280;10220;42.716;23.306;2023-06-22T06:49:03;95724.13;;;25.87;92.38
20119;BME280;10220;42.716;23.306;2023-06-22T06:51:29;95717.53;;;26.03;92.47
20119;BME280;10220;42.716;23.306;2023-06-22T06:53:54;95718.50;;;26.11;91.77
20119;BME280;10220;42.716;23.306;2023-06-22T06:56:20;95713.13;;;25.46;96.97
20119;BME280;10220;42.716;23.306;2023-06-22T06:58:45;95716.38;;;25.62;99.47
20119;BME280;10220;42.716;23.306;2023-06-22T07:01:12;95715.94;;;25.55;100.00
20119;BME280;10220;42.716;23.306;2023-06-22T07:03:38;95696.16;;;26.31;91.54
20119;BME280;10220;42.716;23.306;2023-06-22T07:06:03;95698.31;;;27.02;87.15
20119;BME280;10220;42.716;23.306;2023-06-22T07:08:29;95715.13;;;26.98;86.82
20119;BME280;10220;42.716;23.306;2023-06-22T07:10:54;95720.31;;;26.53;92.14
20119;BME280;10220;42.716;23.306;2023-06-22T07:13:20;95708.38;;;27.19;87.97
20119;BME280;10220;42.716;23.306;2023-06-22T07:15:45;95700.19;;;27.60;84.72
20119;BME280;10220;42.716;23.306;2023-06-22T07:18:11;95711.88;;;28.40;77.54
20119;BME280;10220;42.716;23.306;2023-06-22T07:20:36;95709.47;;;27.76;82.92
20119;BME280;10220;42.716;23.306;2023-06-22T07:23:02;95715.03;;;27.03;89.58
20119;BME280;10220;42.716;23.306;2023-06-22T07:25:28;95689.00;;;26.81;86.79
20119;BME280;10220;42.716;23.306;2023-06-22T07:27:59;95709.47;;;26.67;94.15
20119;BME280;10220;42.716;23.306;2023-06-22T07:30:26;95704.72;;;26.64;93.63
20119;BME280;10220;42.716;23.306;2023-06-22T07:32:52;95703.53;;;27.66;85.35
20119;BME280;10220;42.716;23.306;2023-06-22T07:35:17;95709.16;;;27.64;85.61
20119;BME280;10220;42.716;23.306;2023-06-22T07:37:43;95716.03;;;27.52;89.81
20119;BME280;10220;42.716;23.306;2023-06-22T07:40:09;95714.00;;;27.89;82.83
20119;BME280;10220;42.716;23.306;2023-06-22T07:42:35;95710.19;;;28.44;77.84
20119;BME280;10220;42.716;23.306;2023-06-22T07:45:03;95690.28;;;27.34;90.34
20119;BME280;10220;42.716;23.306;2023-06-22T07:47:29;95718.06;;;28.00;81.88
20119;BME280;10220;42.716;23.306;2023-06-22T07:50:00;95721.78;;;27.14;85.83
20119;BME280;10220;42.716;23.306;2023-06-22T07:52:26;95717.22;;;27.46;89.27
20119;BME280;10220;42.716;23.306;2023-06-22T07:54:52;95707.28;;;27.91;88.42
20119;BME280;10220;42.716;23.306;2023-06-22T07:57:17;95704.53;;;28.58;82.57
20119;BME280;10220;42.716;23.306;2023-06-22T07:59:43;95691.16;;;28.10;83.50
20119;BME280;10220;42.716;23.306;2023-06-22T08:02:09;95690.59;;;27.59;91.64
20119;BME280;10220;42.716;23.306;2023-06-22T08:04:35;95699.09;;;27.75;92.35
20119;BME280;10220;42.716;23.306;2023-06-22T08:07:01;95678.97;;;27.69;95.35
20119;BME280;10220;42.716;23.306;2023-06-22T08:09:31;95699.28;;;28.05;88.29
20119;BME280;10220;42.716;23.306;2023-06-22T08:11:57;95686.66;;;27.84;87.29
20119;BME280;10220;42.716;23.306;2023-06-22T08:14:26;95659.91;;;27.48;94.19
20119;BME280;10220;42.716;23.306;2023-06-22T08:16:52;95688.13;;;28.30;90.89
20119;BME280;10220;42.716;23.306;2023-06-22T08:19:17;95663.00;;;27.69;96.60
20119;BME280;10220;42.716;23.306;2023-06-22T08:21:43;95680.94;;;27.90;93.74
20119;BME280;10220;42.716;23.306;2023-06-22T08:24:11;95657.31;;;27.30;97.23
20119;BME280;10220;42.716;23.306;2023-06-22T08:26:36;95670.47;;;27.67;90.96
20119;BME280;10220;42.716;23.306;2023-06-22T08:29:05;95682.34;;;27.61;94.72
20119;BME280;10220;42.716;23.306;2023-06-22T08:31:31;95680.31;;;27.53;95.42
20119;BME280;10220;42.716;23.306;2023-06-22T08:33:58;95690.63;;;27.14;100.00
20119;BME280;10220;42.716;23.306;2023-06-22T08:36:24;95671.88;;;27.64;99.35
20119;BME280;10220;42.716;23.306;2023-06-22T08:38:49;95667.81;;;27.80;93.49
20119;BME280;10220;42.716;23.306;2023-06-22T08:41:17;95672.63;;;27.91;94.94
20119;BME280;10220;42.716;23.306;2023-06-22T08:43:44;95686.28;;;27.77;94.37
20119;BME280;10220;42.716;23.306;2023-06-22T08:46:12;95675.00;;;28.20;95.68
20119;BME280;10220;42.716;23.306;2023-06-22T08:48:37;95669.75;;;28.50;91.93
20119;BME280;10220;42.716;23.306;2023-06-22T08:51:04;95678.31;;;28.74;92.81
20119;BME280;10220;42.716;23.306;2023-06-22T08:53:30;95672.09;;;29.08;84.32
20119;BME280;10220;42.716;23.306;2023-06-22T08:55:55;95664.91;;;28.87;89.21
20119;BME280;10220;42.716;23.306;2023-06-22T08:58:20;95662.63;;;28.24;89.56
20119;BME280;10220;42.716;23.306;2023-06-22T09:00:46;95659.53;;;27.82;91.15
20119;BME280;10220;42.716;23.306;2023-06-22T09:03:12;95663.91;;;28.26;78.59
20119;BME280;10220;42.716;23.306;2023-06-22T09:05:38;95643.38;;;28.48;74.57
20119;BME280;10220;42.716;23.306;2023-06-22T09:08:03;95650.06;;;28.38;86.19
20119;BME280;10220;42.716;23.306;2023-06-22T09:10:29;95657.34;;;28.46;88.67
20119;BME280;10220;42.716;23.306;2023-06-22T09:12:54;95655.06;;;28.96;82.80
20119;BME280;10220;42.716;23.306;2023-06-22T09:15:20;95655.38;;;28.73;80.24
20119;BME280;10220;42.716;23.306;2023-06-22T09:17:46;95640.78;;;28.35;87.19
20119;BME280;10220;42.716;23.306;2023-06-22T09:20:11;95653.09;;;28.66;84.35
20119;BME280;10220;42.716;23.306;2023-06-22T09:22:37;95664.19;;;28.60;77.64
20119;BME280;10220;42.716;23.306;2023-06-22T09:25:04;95656.66;;;28.62;82.56
20119;BME280;10220;42.716;23.306;2023-06-22T09:27:30;95658.41;;;28.80;81.31
20119;BME280;10220;42.716;23.306;2023-06-22T09:29:55;95663.13;;;28.83;87.64
20119;BME280;10220;42.716;23.306;2023-06-22T09:32:23;95642.03;;;28.95;83.11
20119;BME280;10220;42.716;23.306;2023-06-22T09:34:49;95671.16;;;29.73;79.43
20119;BME280;10220;42.716;23.306;2023-06-22T09:37:14;95654.28;;;30.03;75.43
20119;BME280;10220;42.716;23.306;2023-06-22T09:39:40;95672.28;;;29.72;75.98
20119;BME280;10220;42.716;23.306;2023-06-22T09:42:06;95660.88;;;29.97;71.98
20119;BME280;10220;42.716;23.306;2023-06-22T09:44:31;95661.59;;;29.42;76.47
20119;BME280;10220;42.716;23.306;2023-06-22T09:46:57;95662.94;;;29.53;76.15
20119;BME280;10220;42.716;23.306;2023-06-22T09:49:22;95653.25;;;29.74;79.86
20119;BME280;10220;42.716;23.306;2023-06-22T09:51:48;95645.56;;;29.12;76.56
20119;BME280;10220;42.716;23.306;2023-06-22T09:54:14;95649.50;;;29.36;79.60
20119;BME280;10220;42.716;23.306;2023-06-22T09:56:40;95644.22;;;29.62;76.07
20119;BME280;10220;42.716;23.306;2023-06-22T09:59:05;95640.84;;;29.78;73.71
20119;BME280;10220;42.716;23.306;2023-06-22T10:01:31;95629.28;;;30.08;75.21
20119;BME280;10220;42.716;23.306;2023-06-22T10:03:56;95647.06;;;30.29;68.81
20119;BME280;10220;42.716;23.306;2023-06-22T10:06:22;95625.38;;;30.22;67.93
20119;BME280;10220;42.716;23.306;2023-06-22T10:08:47;95634.50;;;30.29;75.41
20119;BME280;10220;42.716;23.306;2023-06-22T10:11:13;95625.06;;;30.74;74.37
20119;BME280;10220;42.716;23.306;2023-06-22T10:13:39;95632.06;;;31.12;70.92
20119;BME280;10220;42.716;23.306;2023-06-22T10:16:04;95637.94;;;31.06;68.83
20119;BME280;10220;42.716;23.306;2023-06-22T10:18:30;95629.91;;;30.89;66.24
20119;BME280;10220;42.716;23.306;2023-06-22T10:20:56;95638.41;;;30.83;64.08
20119;BME280;10220;42.716;23.306;2023-06-22T10:23:21;95634.03;;;30.27;68.13
20119;BME280;10220;42.716;23.306;2023-06-22T10:25:47;95627.44;;;29.69;67.14
20119;BME280;10220;42.716;23.306;2023-06-22T10:28:13;95616.75;;;29.69;67.97
20119;BME280;10220;42.716;23.306;2023-06-22T10:30:39;95622.66;;;30.14;66.79
20119;BME280;10220;42.716;23.306;2023-06-22T10:33:07;95628.19;;;30.26;67.15
20119;BME280;10220;42.716;23.306;2023-06-22T10:35:33;95621.41;;;30.28;66.00
20119;BME280;10220;42.716;23.306;2023-06-22T10:37:58;95609.75;;;30.75;64.08
20119;BME280;10220;42.716;23.306;2023-06-22T10:40:24;95592.13;;;31.36;55.66
20119;BME280;10220;42.716;23.306;2023-06-22T10:42:49;95605.34;;;31.78;52.81
20119;BME280;10220;42.716;23.306;2023-06-22T10:45:15;95615.00;;;32.00;53.95
20119;BME280;10220;42.716;23.306;2023-06-22T10:47:41;95611.28;;;31.63;56.01
20119;BME280;10220;42.716;23.306;2023-06-22T10:50:07;95586.09;;;31.48;59.56
20119;BME280;10220;42.716;23.306;2023-06-22T10:52:33;95593.63;;;32.32;52.54
20119;BME280;10220;42.716;23.306;2023-06-22T10:54:59;95594.63;;;32.27;55.30
20119;BME280;10220;42.716;23.306;2023-06-22T10:57:24;95597.22;;;32.36;52.09
20119;BME280;10220;42.716;23.306;2023-06-22T10:59:49;95585.44;;;32.08;54.36
20119;BME280;10220;42.716;23.306;2023-06-22T11:02:15;95605.13;;;32.73;51.21
20119;BME280;10220;42.716;23.306;2023-06-22T11:04:40;95590.53;;;33.86;48.57
20119;BME280;10220;42.716;23.306;2023-06-22T11:07:06;95596.94;;;33.82;52.42
20119;BME280;10220;42.716;23.306;2023-06-22T11:09:31;95590.78;;;34.44;48.13
20119;BME280;10220;42.716;23.306;2023-06-22T11:11:57;95599.84;;;34.79;47.40
20119;BME280;10220;42.716;23.306;2023-06-22T11:14:24;95584.47;;;34.79;48.95
20119;BME280;10220;42.716;23.306;2023-06-22T11:16:50;95586.84;;;33.67;50.58
20119;BME280;10220;42.716;23.306;2023-06-22T11:19:15;95576.69;;;33.04;55.43
20119;BME280;10220;42.716;23.306;2023-06-22T11:21:41;95584.56;;;33.33;52.72
20119;BME280;10220;42.716;23.306;2023-06-22T11:24:06;95577.56;;;33.52;50.37
20119;BME280;10220;42.716;23.306;2023-06-22T11:26:32;95576.63;;;32.80;47.21
20119;BME280;10220;42.716;23.306;2023-06-22T11:28:58;95577.66;;;32.35;53.29
20119;BME280;10220;42.716;23.306;2023-06-22T11:31:24;95578.72;;;31.94;55.47
20119;BME280;10220;42.716;23.306;2023-06-22T11:33:50;95574.09;;;31.45;58.73
20119;BME280;10220;42.716;23.306;2023-06-22T11:36:16;95556.56;;;30.56;62.70
20119;BME280;10220;42.716;23.306;2023-06-22T11:38:42;95558.00;;;30.62;65.41
20119;BME280;10220;42.716;23.306;2023-06-22T11:41:08;95581.00;;;30.29;66.08
20119;BME280;10220;42.716;23.306;2023-06-22T11:43:34;95566.63;;;30.59;65.39
20119;BME280;10220;42.716;23.306;2023-06-22T11:46:02;95568.72;;;30.45;65.26
20119;BME280;10220;42.716;23.306;2023-06-22T11:48:28;95569.97;;;30.06;69.57
20119;BME280;10220;42.716;23.306;2023-06-22T11:50:54;95559.81;;;29.77;66.89
20119;BME280;10220;42.716;23.306;2023-06-22T11:53:21;95570.56;;;29.86;71.79
20119;BME280;10220;42.716;23.306;2023-06-22T11:55:47;95566.22;;;29.51;72.08
20119;BME280;10220;42.716;23.306;2023-06-22T11:58:13;95569.22;;;29.50;70.98
20119;BME280;10220;42.716;23.306;2023-06-22T12:00:38;95575.41;;;29.75;70.27
20119;BME280;10220;42.716;23.306;2023-06-22T12:03:04;95565.63;;;29.63;72.95
20119;BME280;10220;42.716;23.306;2023-06-22T12:05:29;95573.16;;;29.52;77.40
20119;BME280;10220;42.716;23.306;2023-06-22T12:07:55;95569.81;;;29.38;78.24
20119;BME280;10220;42.716;23.306;2023-06-22T12:10:22;95579.66;;;28.91;80.93
20119;BME280;10220;42.716;23.306;2023-06-22T12:12:47;95565.47;;;28.60;82.14
20119;BME280;10220;42.716;23.306;2023-06-22T12:15:13;95586.78;;;28.30;83.97
20119;BME280;10220;42.716;23.306;2023-06-22T12:17:38;95577.06;;;27.98;99.40
20119;BME280;10220;42.716;23.306;2023-06-22T12:20:05;95574.38;;;27.63;100.00
20119;BME280;10220;42.716;23.306;2023-06-22T12:22:34;95581.78;;;27.26;100.00
20119;BME280;10220;42.716;23.306;2023-06-22T12:25:00;95595.56;;;26.69;100.00
20119;BME280;10220;42.716;23.306;2023-06-22T12:27:26;95610.25;;;26.67;100.00
20119;BME280;10220;42.716;23.306;2023-06-22T12:29:52;95602.06;;;26.64;100.00
20119;BME280;10220;42.716;23.306;2023-06-22T12:32:17;95617.84;;;26.42;100.00
20119;BME280;10220;42.716;23.306;2023-06-22T12:34:43;95614.81;;;25.28;100.00
20119;BME280;10220;42.716;23.306;2023-06-22T12:37:09;95603.41;;;24.76;100.00
20119;BME280;10220;42.716;23.306;2023-06-22T12:39:35;95608.19;;;24.46;100.00
20119;BME280;10220;42.716;23.306;2023-06-22T12:42:00;95610.28;;;24.49;100.00
20119;BME280;10220;42.716;23.306;2023-06-22T12:44:26;95582.91;;;24.25;100.00